sensor_id;sensor_type;location;lat;lon;timestamp;temperature;humidity
4739;DHT22;2383;48.632;10.156;2023-08-08T00:00:23;11.60;99.50
4739;DHT22;2383;48.632;10.156;2023-08-08T00:04:25;11.50;99.60
4739;DHT22;2383;48.632;10.156;2023-08-08T00:08:27;11.50;99.60
4739;DHT22;2383;48.632;10.156;2023-08-08T00:12:29;11.00;99.90
4739;DHT22;2383;48.632;10.156;2023-08-08T00:16:31;11.00;99.90
4739;DHT22;2383;48.632;10.156;2023-08-08T00:20:33;10.80;99.90
4739;DHT22;2383;48.632;10.156;2023-08-08T00:24:35;11.00;99.90
4739;DHT22;2383;48.632;10.156;2023-08-08T00:28:37;11.00;99.90
4739;DHT22;2383;48.632;10.156;2023-08-08T00:32:39;11.10;99.90
4739;DHT22;2383;48.632;10.156;2023-08-08T00:36:42;10.80;99.90
4739;DHT22;2383;48.632;10.156;2023-08-08T00:40:44;10.70;99.90
4739;DHT22;2383;48.632;10.156;2023-08-08T00:44:46;10.70;99.90
4739;DHT22;2383;48.632;10.156;2023-08-08T00:48:48;10.70;99.90
4739;DHT22;2383;48.632;10.156;2023-08-08T00:52:50;10.60;99.90
4739;DHT22;2383;48.632;10.156;2023-08-08T00:56:52;10.70;99.90
4739;DHT22;2383;48.632;10.156;2023-08-08T01:00:55;11.00;99.90
4739;DHT22;2383;48.632;10.156;2023-08-08T01:05:00;10.60;99.90
4739;DHT22;2383;48.632;10.156;2023-08-08T01:09:09;10.70;99.90
4739;DHT22;2383;48.632;10.156;2023-08-08T01:13:20;11.00;99.90
4739;DHT22;2383;48.632;10.156;2023-08-08T01:17:25;11.10;99.90
4739;DHT22;2383;48.632;10.156;2023-08-08T01:21:29;11.10;99.90
4739;DHT22;2383;48.632;10.156;2023-08-08T01:25:32;10.80;99.90
4739;DHT22;2383;48.632;10.156;2023-08-08T01:29:35;10.80;99.90
4739;DHT22;2383;48.632;10.156;2023-08-08T01:33:37;10.90;99.90
4739;DHT22;2383;48.632;10.156;2023-08-08T01:37:46;10.90;99.90
4739;DHT22;2383;48.632;10.156;2023-08-08T01:41:52;10.70;99.90
4739;DHT22;2383;48.632;10.156;2023-08-08T01:45:55;10.70;99.90
4739;DHT22;2383;48.632;10.156;2023-08-08T01:49:57;10.60;99.90
4739;DHT22;2383;48.632;10.156;2023-08-08T01:53:59;11.00;99.90
4739;DHT22;2383;48.632;10.156;2023-08-08T01:58:01;11.20;99.90
4739;DHT22;2383;48.632;10.156;2023-08-08T02:02:04;11.20;99.90
4739;DHT22;2383;48.632;10.156;2023-08-08T02:06:06;11.20;99.90
4739;DHT22;2383;48.632;10.156;2023-08-08T02:10:08;10.90;99.90
4739;DHT22;2383;48.632;10.156;2023-08-08T02:14:10;10.90;99.90
4739;DHT22;2383;48.632;10.156;2023-08-08T02:18:12;10.90;99.90
4739;DHT22;2383;48.632;10.156;2023-08-08T02:22:14;10.90;99.90
4739;DHT22;2383;48.632;10.156;2023-08-08T02:26:16;11.20;99.90
4739;DHT22;2383;48.632;10.156;2023-08-08T02:30:18;11.20;99.90
4739;DHT22;2383;48.632;10.156;2023-08-08T02:34:20;11.20;99.90
4739;DHT22;2383;48.632;10.156;2023-08-08T02:38:22;11.00;99.90
4739;DHT22;2383;48.632;10.156;2023-08-08T02:42:24;10.70;99.90
4739;DHT22;2383;48.632;10.156;2023-08-08T02:46:27;10.30;99.90
4739;DHT22;2383;48.632;10.156;2023-08-08T02:50:29;10.30;99.90
4739;DHT22;2383;48.632;10.156;2023-08-08T02:54:31;10.50;99.90
4739;DHT22;2383;48.632;10.156;2023-08-08T02:58:33;10.70;99.90
4739;DHT22;2383;48.632;10.156;2023-08-08T03:02:35;10.90;99.90
4739;DHT22;2383;48.632;10.156;2023-08-08T03:06:37;11.20;99.90
4739;DHT22;2383;48.632;10.156;2023-08-08T03:10:39;11.00;99.90
4739;DHT22;2383;48.632;10.156;2023-08-08T03:14:43;10.70;99.90
4739;DHT22;2383;48.632;10.156;2023-08-08T03:18:45;10.80;99.90
4739;DHT22;2383;48.632;10.156;2023-08-08T03:22:48;10.90;99.90
4739;DHT22;2383;48.632;10.156;2023-08-08T03:26:51;10.90;99.90
4739;DHT22;2383;48.632;10.156;2023-08-08T03:30:53;10.70;99.90
4739;DHT22;2383;48.632;10.156;2023-08-08T03:34:56;10.90;99.90
4739;DHT22;2383;48.632;10.156;2023-08-08T03:38:58;11.10;99.90
4739;DHT22;2383;48.632;10.156;2023-08-08T03:43:01;10.70;99.90
4739;DHT22;2383;48.632;10.156;2023-08-08T03:47:04;10.50;99.90
4739;DHT22;2383;48.632;10.156;2023-08-08T03:51:21;10.90;99.90
4739;DHT22;2383;48.632;10.156;2023-08-08T03:55:23;10.80;99.90
4739;DHT22;2383;48.632;10.156;2023-08-08T03:59:25;11.10;99.90
4739;DHT22;2383;48.632;10.156;2023-08-08T04:03:27;11.10;99.90
4739;DHT22;2383;48.632;10.156;2023-08-08T04:07:30;11.10;99.90
4739;DHT22;2383;48.632;10.156;2023-08-08T04:11:33;10.90;99.90
4739;DHT22;2383;48.632;10.156;2023-08-08T04:15:37;10.70;99.90
4739;DHT22;2383;48.632;10.156;2023-08-08T04:19:40;10.60;99.90
4739;DHT22;2383;48.632;10.156;2023-08-08T04:23:43;10.40;99.90
4739;DHT22;2383;48.632;10.156;2023-08-08T04:27:44;10.60;99.90
4739;DHT22;2383;48.632;10.156;2023-08-08T04:31:47;10.50;99.90
4739;DHT22;2383;48.632;10.156;2023-08-08T04:35:48;10.00;99.90
4739;DHT22;2383;48.632;10.156;2023-08-08T04:39:50;10.30;99.90
4739;DHT22;2383;48.632;10.156;2023-08-08T04:43:52;10.00;99.90
4739;DHT22;2383;48.632;10.156;2023-08-08T04:47:55;9.90;99.90
4739;DHT22;2383;48.632;10.156;2023-08-08T04:51:57;9.90;99.90
4739;DHT22;2383;48.632;10.156;2023-08-08T04:55:59;9.70;99.90
4739;DHT22;2383;48.632;10.156;2023-08-08T05:00:02;10.00;99.90
4739;DHT22;2383;48.632;10.156;2023-08-08T05:04:06;10.10;99.90
4739;DHT22;2383;48.632;10.156;2023-08-08T05:08:08;10.10;99.90
4739;DHT22;2383;48.632;10.156;2023-08-08T05:12:10;10.50;99.90
4739;DHT22;2383;48.632;10.156;2023-08-08T05:16:13;10.50;99.90
4739;DHT22;2383;48.632;10.156;2023-08-08T05:20:15;10.80;99.90
4739;DHT22;2383;48.632;10.156;2023-08-08T05:24:17;11.00;99.90
4739;DHT22;2383;48.632;10.156;2023-08-08T05:28:20;11.20;99.90
4739;DHT22;2383;48.632;10.156;2023-08-08T05:32:22;11.10;99.90
4739;DHT22;2383;48.632;10.156;2023-08-08T05:36:24;10.70;99.90
4739;DHT22;2383;48.632;10.156;2023-08-08T05:40:26;10.80;99.90
4739;DHT22;2383;48.632;10.156;2023-08-08T05:44:28;11.10;99.90
4739;DHT22;2383;48.632;10.156;2023-08-08T05:48:30;11.60;99.90
4739;DHT22;2383;48.632;10.156;2023-08-08T05:52:32;11.80;99.90
4739;DHT22;2383;48.632;10.156;2023-08-08T05:56:35;11.90;99.90
4739;DHT22;2383;48.632;10.156;2023-08-08T06:00:39;12.10;99.90
4739;DHT22;2383;48.632;10.156;2023-08-08T06:04:41;11.90;99.90
4739;DHT22;2383;48.632;10.156;2023-08-08T06:08:43;12.20;99.90
4739;DHT22;2383;48.632;10.156;2023-08-08T06:12:45;12.40;99.90
4739;DHT22;2383;48.632;10.156;2023-08-08T06:16:47;12.50;99.90
4739;DHT22;2383;48.632;10.156;2023-08-08T06:20:49;12.70;99.90
4739;DHT22;2383;48.632;10.156;2023-08-08T06:24:51;12.80;99.90
4739;DHT22;2383;48.632;10.156;2023-08-08T06:28:53;12.70;99.90
4739;DHT22;2383;48.632;10.156;2023-08-08T06:32:55;12.90;99.90
4739;DHT22;2383;48.632;10.156;2023-08-08T06:36:57;12.40;99.90
4739;DHT22;2383;48.632;10.156;2023-08-08T06:41:00;12.20;99.90
4739;DHT22;2383;48.632;10.156;2023-08-08T06:45:02;12.50;99.90
4739;DHT22;2383;48.632;10.156;2023-08-08T06:49:05;12.90;99.90
4739;DHT22;2383;48.632;10.156;2023-08-08T06:53:08;13.10;99.90
4739;DHT22;2383;48.632;10.156;2023-08-08T06:57:11;13.20;99.90
4739;DHT22;2383;48.632;10.156;2023-08-08T07:01:12;12.80;99.90
4739;DHT22;2383;48.632;10.156;2023-08-08T07:05:15;12.80;99.90
4739;DHT22;2383;48.632;10.156;2023-08-08T07:09:17;13.40;99.90
4739;DHT22;2383;48.632;10.156;2023-08-08T07:13:20;13.60;99.90
4739;DHT22;2383;48.632;10.156;2023-08-08T07:17:22;13.80;99.90
4739;DHT22;2383;48.632;10.156;2023-08-08T07:21:24;13.60;99.90
4739;DHT22;2383;48.632;10.156;2023-08-08T07:25:26;13.50;99.90
4739;DHT22;2383;48.632;10.156;2023-08-08T07:29:28;13.50;99.90
4739;DHT22;2383;48.632;10.156;2023-08-08T07:33:30;13.70;99.90
4739;DHT22;2383;48.632;10.156;2023-08-08T07:37:32;13.90;99.90
4739;DHT22;2383;48.632;10.156;2023-08-08T07:41:35;14.20;99.90
4739;DHT22;2383;48.632;10.156;2023-08-08T07:45:37;14.10;99.90
4739;DHT22;2383;48.632;10.156;2023-08-08T07:49:39;14.30;99.90
4739;DHT22;2383;48.632;10.156;2023-08-08T07:53:41;14.80;99.90
4739;DHT22;2383;48.632;10.156;2023-08-08T07:57:45;14.80;99.90
4739;DHT22;2383;48.632;10.156;2023-08-08T08:01:47;14.90;99.90
4739;DHT22;2383;48.632;10.156;2023-08-08T08:05:49;14.80;99.90
4739;DHT22;2383;48.632;10.156;2023-08-08T08:09:51;15.00;99.90
4739;DHT22;2383;48.632;10.156;2023-08-08T08:13:53;15.00;99.90
4739;DHT22;2383;48.632;10.156;2023-08-08T08:17:56;15.40;99.70
4739;DHT22;2383;48.632;10.156;2023-08-08T08:21:58;14.80;98.30
4739;DHT22;2383;48.632;10.156;2023-08-08T08:26:01;14.30;97.60
4739;DHT22;2383;48.632;10.156;2023-08-08T08:30:04;14.30;97.60
4739;DHT22;2383;48.632;10.156;2023-08-08T08:34:07;14.60;97.50
4739;DHT22;2383;48.632;10.156;2023-08-08T08:38:10;14.70;97.50
4739;DHT22;2383;48.632;10.156;2023-08-08T08:42:13;14.50;96.80
4739;DHT22;2383;48.632;10.156;2023-08-08T08:46:21;14.00;97.00
4739;DHT22;2383;48.632;10.156;2023-08-08T08:50:27;14.40;97.30
4739;DHT22;2383;48.632;10.156;2023-08-08T08:54:29;15.10;97.20
4739;DHT22;2383;48.632;10.156;2023-08-08T08:58:32;15.30;96.90
4739;DHT22;2383;48.632;10.156;2023-08-08T09:02:33;14.80;96.20
4739;DHT22;2383;48.632;10.156;2023-08-08T09:06:36;14.20;96.30
4739;DHT22;2383;48.632;10.156;2023-08-08T09:10:40;14.60;96.80
4739;DHT22;2383;48.632;10.156;2023-08-08T09:14:42;14.40;95.70
4739;DHT22;2383;48.632;10.156;2023-08-08T09:18:44;14.40;95.70
4739;DHT22;2383;48.632;10.156;2023-08-08T09:22:46;14.70;95.40
4739;DHT22;2383;48.632;10.156;2023-08-08T09:26:48;14.50;95.60
4739;DHT22;2383;48.632;10.156;2023-08-08T09:30:51;14.60;95.30
4739;DHT22;2383;48.632;10.156;2023-08-08T09:34:56;14.50;94.70
4739;DHT22;2383;48.632;10.156;2023-08-08T09:38:58;15.30;95.20
4739;DHT22;2383;48.632;10.156;2023-08-08T09:43:00;15.60;94.80
4739;DHT22;2383;48.632;10.156;2023-08-08T09:47:02;15.20;94.40
4739;DHT22;2383;48.632;10.156;2023-08-08T09:51:06;15.10;94.30
4739;DHT22;2383;48.632;10.156;2023-08-08T09:55:08;15.00;94.70
4739;DHT22;2383;48.632;10.156;2023-08-08T09:59:11;14.70;94.60
4739;DHT22;2383;48.632;10.156;2023-08-08T10:03:14;15.00;95.00
4739;DHT22;2383;48.632;10.156;2023-08-08T10:07:17;14.70;95.10
4739;DHT22;2383;48.632;10.156;2023-08-08T10:11:22;15.50;94.60
4739;DHT22;2383;48.632;10.156;2023-08-08T10:15:26;16.10;93.90
4739;DHT22;2383;48.632;10.156;2023-08-08T10:19:29;16.70;94.30
4739;DHT22;2383;48.632;10.156;2023-08-08T10:23:37;16.30;93.40
4739;DHT22;2383;48.632;10.156;2023-08-08T10:27:40;16.20;94.10
4739;DHT22;2383;48.632;10.156;2023-08-08T10:31:51;16.00;93.60
4739;DHT22;2383;48.632;10.156;2023-08-08T10:36:03;16.00;93.20
4739;DHT22;2383;48.632;10.156;2023-08-08T10:40:06;15.80;92.60
4739;DHT22;2383;48.632;10.156;2023-08-08T10:44:09;15.50;92.80
4739;DHT22;2383;48.632;10.156;2023-08-08T10:48:11;16.40;93.80
4739;DHT22;2383;48.632;10.156;2023-08-08T10:52:14;16.70;91.70
4739;DHT22;2383;48.632;10.156;2023-08-08T10:56:18;16.60;92.40
4739;DHT22;2383;48.632;10.156;2023-08-08T11:00:21;16.80;91.30
4739;DHT22;2383;48.632;10.156;2023-08-08T11:04:24;16.10;90.90
4739;DHT22;2383;48.632;10.156;2023-08-08T11:08:29;16.60;90.90
4739;DHT22;2383;48.632;10.156;2023-08-08T11:12:32;16.60;90.90
4739;DHT22;2383;48.632;10.156;2023-08-08T11:16:34;16.20;90.50
4739;DHT22;2383;48.632;10.156;2023-08-08T11:20:37;16.00;90.30
4739;DHT22;2383;48.632;10.156;2023-08-08T11:24:39;16.20;89.70
4739;DHT22;2383;48.632;10.156;2023-08-08T11:28:49;16.10;88.00
4739;DHT22;2383;48.632;10.156;2023-08-08T11:32:52;16.50;89.80
4739;DHT22;2383;48.632;10.156;2023-08-08T11:36:57;16.70;89.30
4739;DHT22;2383;48.632;10.156;2023-08-08T11:41:00;16.60;88.80
4739;DHT22;2383;48.632;10.156;2023-08-08T11:45:03;16.40;84.90
4739;DHT22;2383;48.632;10.156;2023-08-08T11:49:06;16.20;82.90
4739;DHT22;2383;48.632;10.156;2023-08-08T11:53:08;16.60;84.50
4739;DHT22;2383;48.632;10.156;2023-08-08T11:57:10;16.50;85.00
4739;DHT22;2383;48.632;10.156;2023-08-08T12:01:13;17.30;84.00
4739;DHT22;2383;48.632;10.156;2023-08-08T12:05:16;17.00;86.60
4739;DHT22;2383;48.632;10.156;2023-08-08T12:09:23;17.00;86.20
4739;DHT22;2383;48.632;10.156;2023-08-08T12:13:30;17.00;86.30
4739;DHT22;2383;48.632;10.156;2023-08-08T12:17:39;16.90;83.90
4739;DHT22;2383;48.632;10.156;2023-08-08T12:21:41;17.80;81.60
4739;DHT22;2383;48.632;10.156;2023-08-08T12:25:43;17.60;81.30
4739;DHT22;2383;48.632;10.156;2023-08-08T12:29:45;17.90;84.30
4739;DHT22;2383;48.632;10.156;2023-08-08T12:33:47;17.70;83.50
4739;DHT22;2383;48.632;10.156;2023-08-08T12:37:50;17.80;85.40
4739;DHT22;2383;48.632;10.156;2023-08-08T12:41:52;17.80;82.80
4739;DHT22;2383;48.632;10.156;2023-08-08T12:45:54;17.80;82.10
4739;DHT22;2383;48.632;10.156;2023-08-08T12:49:56;17.20;83.10
4739;DHT22;2383;48.632;10.156;2023-08-08T12:53:59;17.50;84.00
4739;DHT22;2383;48.632;10.156;2023-08-08T12:58:02;17.30;85.10
4739;DHT22;2383;48.632;10.156;2023-08-08T13:02:04;17.70;82.60
4739;DHT22;2383;48.632;10.156;2023-08-08T13:06:06;17.30;85.30
4739;DHT22;2383;48.632;10.156;2023-08-08T13:10:08;17.70;84.50
4739;DHT22;2383;48.632;10.156;2023-08-08T13:14:11;17.70;85.80
4739;DHT22;2383;48.632;10.156;2023-08-08T13:18:14;18.00;82.70
4739;DHT22;2383;48.632;10.156;2023-08-08T13:22:16;17.80;82.60
4739;DHT22;2383;48.632;10.156;2023-08-08T13:26:18;17.60;82.60
4739;DHT22;2383;48.632;10.156;2023-08-08T13:30:20;17.50;84.50
4739;DHT22;2383;48.632;10.156;2023-08-08T13:34:23;17.60;84.00
4739;DHT22;2383;48.632;10.156;2023-08-08T13:38:25;17.60;82.60
4739;DHT22;2383;48.632;10.156;2023-08-08T13:42:28;17.80;83.30
4739;DHT22;2383;48.632;10.156;2023-08-08T13:46:30;17.90;82.20
4739;DHT22;2383;48.632;10.156;2023-08-08T13:50:32;18.50;81.80
4739;DHT22;2383;48.632;10.156;2023-08-08T13:54:34;18.80;81.10
4739;DHT22;2383;48.632;10.156;2023-08-08T13:58:36;18.40;78.30
4739;DHT22;2383;48.632;10.156;2023-08-08T14:02:39;18.50;77.10
4739;DHT22;2383;48.632;10.156;2023-08-08T14:06:41;18.40;77.10
4739;DHT22;2383;48.632;10.156;2023-08-08T14:10:43;18.10;77.20
4739;DHT22;2383;48.632;10.156;2023-08-08T14:14:45;18.10;77.20
4739;DHT22;2383;48.632;10.156;2023-08-08T14:18:47;17.50;77.70
4739;DHT22;2383;48.632;10.156;2023-08-08T14:22:49;17.50;78.30
4739;DHT22;2383;48.632;10.156;2023-08-08T14:26:51;17.70;78.90
4739;DHT22;2383;48.632;10.156;2023-08-08T14:30:53;18.30;77.10
4739;DHT22;2383;48.632;10.156;2023-08-08T14:34:55;18.20;78.00
4739;DHT22;2383;48.632;10.156;2023-08-08T14:39:00;17.80;80.00
4739;DHT22;2383;48.632;10.156;2023-08-08T14:43:03;17.90;78.50
4739;DHT22;2383;48.632;10.156;2023-08-08T14:47:05;18.50;78.80
4739;DHT22;2383;48.632;10.156;2023-08-08T14:51:07;18.00;79.60
4739;DHT22;2383;48.632;10.156;2023-08-08T14:55:09;17.90;79.20
4739;DHT22;2383;48.632;10.156;2023-08-08T14:59:11;17.70;79.50
4739;DHT22;2383;48.632;10.156;2023-08-08T15:03:13;17.80;80.10
4739;DHT22;2383;48.632;10.156;2023-08-08T15:07:16;18.20;80.30
4739;DHT22;2383;48.632;10.156;2023-08-08T15:11:18;18.10;81.40
4739;DHT22;2383;48.632;10.156;2023-08-08T15:15:20;17.80;80.10
4739;DHT22;2383;48.632;10.156;2023-08-08T15:19:24;18.10;82.10
4739;DHT22;2383;48.632;10.156;2023-08-08T15:23:27;17.40;82.20
4739;DHT22;2383;48.632;10.156;2023-08-08T15:27:29;17.20;82.50
4739;DHT22;2383;48.632;10.156;2023-08-08T15:31:31;17.20;83.80
4739;DHT22;2383;48.632;10.156;2023-08-08T15:35:34;17.90;83.60
4739;DHT22;2383;48.632;10.156;2023-08-08T15:39:36;17.90;82.70
4739;DHT22;2383;48.632;10.156;2023-08-08T15:43:38;18.30;83.10
4739;DHT22;2383;48.632;10.156;2023-08-08T15:47:41;18.40;83.90
4739;DHT22;2383;48.632;10.156;2023-08-08T15:51:43;18.60;84.10
4739;DHT22;2383;48.632;10.156;2023-08-08T15:55:45;18.40;83.60
4739;DHT22;2383;48.632;10.156;2023-08-08T15:59:47;18.40;83.40
4739;DHT22;2383;48.632;10.156;2023-08-08T16:03:49;18.40;83.70
4739;DHT22;2383;48.632;10.156;2023-08-08T16:07:51;18.20;84.80
4739;DHT22;2383;48.632;10.156;2023-08-08T16:11:54;18.00;84.80
4739;DHT22;2383;48.632;10.156;2023-08-08T16:15:56;17.70;85.40
4739;DHT22;2383;48.632;10.156;2023-08-08T16:19:59;17.80;86.00
4739;DHT22;2383;48.632;10.156;2023-08-08T16:24:01;17.70;85.70
4739;DHT22;2383;48.632;10.156;2023-08-08T16:28:04;17.20;86.20
4739;DHT22;2383;48.632;10.156;2023-08-08T16:32:06;17.50;87.10
4739;DHT22;2383;48.632;10.156;2023-08-08T16:36:08;17.00;86.80
4739;DHT22;2383;48.632;10.156;2023-08-08T16:40:11;17.10;86.90
4739;DHT22;2383;48.632;10.156;2023-08-08T16:44:13;17.20;87.50
4739;DHT22;2383;48.632;10.156;2023-08-08T16:48:15;16.90;88.50
4739;DHT22;2383;48.632;10.156;2023-08-08T16:52:17;17.70;86.60
4739;DHT22;2383;48.632;10.156;2023-08-08T16:56:20;17.40;87.40
4739;DHT22;2383;48.632;10.156;2023-08-08T17:00:22;17.20;87.70
4739;DHT22;2383;48.632;10.156;2023-08-08T17:04:24;17.00;89.50
4739;DHT22;2383;48.632;10.156;2023-08-08T17:08:26;16.60;88.80
4739;DHT22;2383;48.632;10.156;2023-08-08T17:12:28;16.80;88.60
4739;DHT22;2383;48.632;10.156;2023-08-08T17:16:30;16.60;90.00
4739;DHT22;2383;48.632;10.156;2023-08-08T17:20:33;17.00;88.90
4739;DHT22;2383;48.632;10.156;2023-08-08T17:24:35;17.20;88.80
4739;DHT22;2383;48.632;10.156;2023-08-08T17:28:41;17.30;88.50
4739;DHT22;2383;48.632;10.156;2023-08-08T17:32:43;17.90;88.80
4739;DHT22;2383;48.632;10.156;2023-08-08T17:36:45;17.20;89.80
4739;DHT22;2383;48.632;10.156;2023-08-08T17:40:49;17.70;89.20
4739;DHT22;2383;48.632;10.156;2023-08-08T17:44:52;17.40;89.50
4739;DHT22;2383;48.632;10.156;2023-08-08T17:48:53;17.30;89.30
4739;DHT22;2383;48.632;10.156;2023-08-08T17:52:56;17.60;89.50
4739;DHT22;2383;48.632;10.156;2023-08-08T17:56:58;17.40;89.20
4739;DHT22;2383;48.632;10.156;2023-08-08T18:01:00;17.50;89.50
4739;DHT22;2383;48.632;10.156;2023-08-08T18:05:03;17.30;90.30
4739;DHT22;2383;48.632;10.156;2023-08-08T18:09:05;17.70;89.50
4739;DHT22;2383;48.632;10.156;2023-08-08T18:13:08;17.90;90.20
4739;DHT22;2383;48.632;10.156;2023-08-08T18:17:10;17.90;89.40
4739;DHT22;2383;48.632;10.156;2023-08-08T18:21:12;18.00;89.60
4739;DHT22;2383;48.632;10.156;2023-08-08T18:25:14;17.90;89.30
4739;DHT22;2383;48.632;10.156;2023-08-08T18:29:16;17.70;90.00
4739;DHT22;2383;48.632;10.156;2023-08-08T18:33:19;17.80;90.40
4739;DHT22;2383;48.632;10.156;2023-08-08T18:37:20;17.80;90.30
4739;DHT22;2383;48.632;10.156;2023-08-08T18:41:23;17.90;90.30
4739;DHT22;2383;48.632;10.156;2023-08-08T18:45:25;17.80;91.40
4739;DHT22;2383;48.632;10.156;2023-08-08T18:49:27;17.60;90.90
4739;DHT22;2383;48.632;10.156;2023-08-08T18:53:29;17.30;91.60
4739;DHT22;2383;48.632;10.156;2023-08-08T18:57:32;17.20;91.80
4739;DHT22;2383;48.632;10.156;2023-08-08T19:01:35;17.30;91.80
4739;DHT22;2383;48.632;10.156;2023-08-08T19:05:37;17.30;92.20
4739;DHT22;2383;48.632;10.156;2023-08-08T19:09:39;17.10;92.60
4739;DHT22;2383;48.632;10.156;2023-08-08T19:13:41;16.70;93.10
4739;DHT22;2383;48.632;10.156;2023-08-08T19:17:44;16.70;93.00
4739;DHT22;2383;48.632;10.156;2023-08-08T19:21:56;16.70;93.00
4739;DHT22;2383;48.632;10.156;2023-08-08T19:26:02;16.80;92.60
4739;DHT22;2383;48.632;10.156;2023-08-08T19:30:04;16.90;92.70
4739;DHT22;2383;48.632;10.156;2023-08-08T19:34:08;16.80;92.60
4739;DHT22;2383;48.632;10.156;2023-08-08T19:38:11;16.90;92.60
4739;DHT22;2383;48.632;10.156;2023-08-08T19:42:13;16.90;93.30
4739;DHT22;2383;48.632;10.156;2023-08-08T19:46:15;16.80;93.50
4739;DHT22;2383;48.632;10.156;2023-08-08T19:50:17;16.70;93.50
4739;DHT22;2383;48.632;10.156;2023-08-08T19:54:19;16.70;93.40
4739;DHT22;2383;48.632;10.156;2023-08-08T19:58:21;16.70;93.60
4739;DHT22;2383;48.632;10.156;2023-08-08T20:02:23;16.70;93.70
4739;DHT22;2383;48.632;10.156;2023-08-08T20:06:25;16.50;93.80
4739;DHT22;2383;48.632;10.156;2023-08-08T20:10:28;16.40;94.20
4739;DHT22;2383;48.632;10.156;2023-08-08T20:14:30;16.50;94.70
4739;DHT22;2383;48.632;10.156;2023-08-08T20:18:33;16.50;94.70
4739;DHT22;2383;48.632;10.156;2023-08-08T20:22:35;16.40;94.90
4739;DHT22;2383;48.632;10.156;2023-08-08T20:26:37;16.30;95.10
4739;DHT22;2383;48.632;10.156;2023-08-08T20:30:39;16.30;95.70
4739;DHT22;2383;48.632;10.156;2023-08-08T20:34:45;15.90;96.20
4739;DHT22;2383;48.632;10.156;2023-08-08T20:38:47;15.30;96.80
4739;DHT22;2383;48.632;10.156;2023-08-08T20:42:49;15.20;97.10
4739;DHT22;2383;48.632;10.156;2023-08-08T20:46:51;15.20;97.30
4739;DHT22;2383;48.632;10.156;2023-08-08T20:50:53;15.30;97.50
4739;DHT22;2383;48.632;10.156;2023-08-08T20:54:55;15.50;97.50
4739;DHT22;2383;48.632;10.156;2023-08-08T20:58:57;15.60;97.60
4739;DHT22;2383;48.632;10.156;2023-08-08T21:03:00;15.70;97.50
4739;DHT22;2383;48.632;10.156;2023-08-08T21:07:03;15.90;97.40
4739;DHT22;2383;48.632;10.156;2023-08-08T21:11:05;16.00;97.20
4739;DHT22;2383;48.632;10.156;2023-08-08T21:15:08;16.00;97.40
4739;DHT22;2383;48.632;10.156;2023-08-08T21:19:10;15.90;97.20
4739;DHT22;2383;48.632;10.156;2023-08-08T21:23:12;15.90;96.70
4739;DHT22;2383;48.632;10.156;2023-08-08T21:27:14;15.90;96.80
4739;DHT22;2383;48.632;10.156;2023-08-08T21:31:16;16.10;97.00
4739;DHT22;2383;48.632;10.156;2023-08-08T21:35:19;16.10;97.30
4739;DHT22;2383;48.632;10.156;2023-08-08T21:39:21;15.90;97.50
4739;DHT22;2383;48.632;10.156;2023-08-08T21:43:23;15.90;97.40
4739;DHT22;2383;48.632;10.156;2023-08-08T21:47:25;16.00;97.20
4739;DHT22;2383;48.632;10.156;2023-08-08T21:51:27;15.90;97.20
4739;DHT22;2383;48.632;10.156;2023-08-08T21:55:30;16.00;97.00
4739;DHT22;2383;48.632;10.156;2023-08-08T21:59:32;16.10;97.30
4739;DHT22;2383;48.632;10.156;2023-08-08T22:03:34;15.90;97.50
4739;DHT22;2383;48.632;10.156;2023-08-08T22:07:35;15.90;97.20
4739;DHT22;2383;48.632;10.156;2023-08-08T22:11:38;15.60;96.80
4739;DHT22;2383;48.632;10.156;2023-08-08T22:15:39;15.60;96.50
4739;DHT22;2383;48.632;10.156;2023-08-08T22:19:41;15.80;96.60
4739;DHT22;2383;48.632;10.156;2023-08-08T22:23:44;15.90;96.80
4739;DHT22;2383;48.632;10.156;2023-08-08T22:27:46;16.00;96.40
4739;DHT22;2383;48.632;10.156;2023-08-08T22:31:47;15.90;96.90
4739;DHT22;2383;48.632;10.156;2023-08-08T22:35:49;15.80;97.10
4739;DHT22;2383;48.632;10.156;2023-08-08T22:39:51;15.50;97.70
4739;DHT22;2383;48.632;10.156;2023-08-08T22:43:53;15.70;97.90
4739;DHT22;2383;48.632;10.156;2023-08-08T22:47:55;15.70;97.70
4739;DHT22;2383;48.632;10.156;2023-08-08T22:51:57;15.70;96.40
4739;DHT22;2383;48.632;10.156;2023-08-08T22:55:59;16.00;96.30
4739;DHT22;2383;48.632;10.156;2023-08-08T23:00:02;16.00;96.10
4739;DHT22;2383;48.632;10.156;2023-08-08T23:04:05;15.70;96.70
4739;DHT22;2383;48.632;10.156;2023-08-08T23:08:08;15.60;97.70
4739;DHT22;2383;48.632;10.156;2023-08-08T23:12:11;15.60;98.20
4739;DHT22;2383;48.632;10.156;2023-08-08T23:16:13;15.50;98.50
4739;DHT22;2383;48.632;10.156;2023-08-08T23:20:15;15.40;98.50
4739;DHT22;2383;48.632;10.156;2023-08-08T23:24:17;15.50;97.70
4739;DHT22;2383;48.632;10.156;2023-08-08T23:28:19;15.40;97.60
4739;DHT22;2383;48.632;10.156;2023-08-08T23:32:21;15.40;97.10
4739;DHT22;2383;48.632;10.156;2023-08-08T23:36:24;15.60;97.00
4739;DHT22;2383;48.632;10.156;2023-08-08T23:40:27;15.40;97.10
4739;DHT22;2383;48.632;10.156;2023-08-08T23:44:28;15.40;97.30
4739;DHT22;2383;48.632;10.156;2023-08-08T23:48:31;15.50;97.30
4739;DHT22;2383;48.632;10.156;2023-08-08T23:52:36;15.40;97.50
4739;DHT22;2383;48.632;10.156;2023-08-08T23:56:39;15.60;97.90
